Time;durP1;ratioP1;P1;durP2;ratioP2;P2;SDS_P1;SDS_P2;PMS_P1;PMS_P2;Temp;Humidity;BMP_temperature;BMP_pressure;BME280_temperature;BME280_humidity;BME280_pressure;Samples;Min_cycle;Max_cycle;Signal;HPM_P1;HPM_P2
2023/12/16 00:01:16;;;;;;;11.07;5.47;;;;;;;;;;4914892;29;20036;-74
2023/12/16 00:03:43;;;;;;;3.65;3.38;;;;;;;;;;4914636;29;20040;-74
2023/12/16 00:06:09;;;;;;;3.40;2.83;;;;;;;;;;4914741;29;20028;-74
2023/12/16 00:08:35;;;;;;;8.35;5.47;;;;;;;;;;4897915;29;20076;-72
2023/12/16 00:11:02;;;;;;;13.85;4.70;;;;;;;;;;4915726;29;20028;-75
2023/12/16 00:13:28;;;;;;;9.05;4.80;;;;;;;;;;4897302;29;20036;-74
2023/12/16 00:15:54;;;;;;;9.48;6.57;;;;;;;;;;4881333;29;20538;-74
2023/12/16 00:18:20;;;;;;;18.45;4.70;;;;;;;;;;4897196;29;20146;-73
2023/12/16 00:20:46;;;;;;;7.35;3.88;;;;;;;;;;4897200;29;20396;-73
2023/12/16 00:23:12;;;;;;;13.02;6.00;;;;;;;;;;4896149;29;20060;-75
2023/12/16 00:25:39;;;;;;;5.15;3.47;;;;;;;;;;4914348;29;20582;-74
2023/12/16 00:28:05;;;;;;;12.82;5.47;;;;;;;;;;4897012;29;20047;-74
2023/12/16 00:30:31;;;;;;;9.23;5.18;;;;;;;;;;4882805;29;20040;-74
2023/12/16 00:32:58;;;;;;;9.93;5.25;;;;;;;;;;4897051;29;20284;-74
2023/12/16 00:35:25;;;;;;;6.70;4.45;;;;;;;;;;4898451;29;20042;-75
2023/12/16 00:37:51;;;;;;;29.42;6.10;;;;;;;;;;4896743;29;20569;-74
2023/12/16 00:40:17;;;;;;;7.97;5.13;;;;;;;;;;4897832;29;20036;-74
2023/12/16 00:42:44;;;;;;;6.85;4.60;;;;;;;;;;4865761;29;20410;-73
2023/12/16 00:45:10;;;;;;;14.43;4.65;;;;;;;;;;4897565;29;20147;-74
2023/12/16 00:47:38;;;;;;;33.38;5.75;;;;;;;;;;4897967;29;20064;-72
2023/12/16 00:50:05;;;;;;;4.80;3.95;;;;;;;;;;4897779;29;20048;-74
2023/12/16 00:52:31;;;;;;;3.15;2.88;;;;;;;;;;4892984;29;20119;-74
2023/12/16 00:54:58;;;;;;;26.25;6.80;;;;;;;;;;4913892;29;20590;-74
2023/12/16 00:57:24;;;;;;;10.05;3.22;;;;;;;;;;4896466;29;20043;-73
2023/12/16 00:59:50;;;;;;;13.95;3.30;;;;;;;;;;4914729;29;20040;-74
2023/12/16 01:02:17;;;;;;;5.97;3.05;;;;;;;;;;4881805;29;20477;-75
2023/12/16 01:04:43;;;;;;;38.78;3.97;;;;;;;;;;4881158;29;20598;-73
2023/12/16 01:07:09;;;;;;;7.28;5.18;;;;;;;;;;4896234;29;20032;-74
2023/12/16 01:09:35;;;;;;;13.70;5.55;;;;;;;;;;4895260;29;20059;-72
2023/12/16 01:12:02;;;;;;;12.52;4.30;;;;;;;;;;4887937;29;20036;-72
2023/12/16 01:14:27;;;;;;;14.52;4.88;;;;;;;;;;4893676;29;20438;-73
2023/12/16 01:16:53;;;;;;;6.88;3.65;;;;;;;;;;4864724;29;20060;-73
2023/12/16 01:19:20;;;;;;;16.15;4.63;;;;;;;;;;4914058;29;20673;-74
2023/12/16 01:21:46;;;;;;;19.10;6.07;;;;;;;;;;4895568;29;20099;-73
2023/12/16 01:24:12;;;;;;;24.48;6.35;;;;;;;;;;4893732;29;20441;-73
2023/12/16 01:26:38;;;;;;;10.68;5.82;;;;;;;;;;4913706;29;20075;-73
2023/12/16 01:29:04;;;;;;;13.50;5.55;;;;;;;;;;4913754;29;20071;-73
2023/12/16 01:31:30;;;;;;;5.80;2.55;;;;;;;;;;4912927;29;20061;-73
2023/12/16 01:33:55;;;;;;;2.35;2.17;;;;;;;;;;4895991;29;20535;-74
2023/12/16 01:36:22;;;;;;;6.95;3.85;;;;;;;;;;4895789;29;20038;-74
2023/12/16 01:38:47;;;;;;;3.53;2.95;;;;;;;;;;4913346;29;20298;-73
2023/12/16 01:41:13;;;;;;;8.57;4.05;;;;;;;;;;4914061;29;20068;-72
2023/12/16 01:43:39;;;;;;;6.18;4.10;;;;;;;;;;4912642;29;20136;-72
2023/12/16 01:46:05;;;;;;;7.28;4.80;;;;;;;;;;4913121;29;20064;-72
2023/12/16 01:48:31;;;;;;;6.25;4.22;;;;;;;;;;4913279;29;20098;-73
2023/12/16 01:50:57;;;;;;;3.80;2.85;;;;;;;;;;4896690;29;20040;-74
2023/12/16 01:53:23;;;;;;;7.05;3.13;;;;;;;;;;4915411;29;20175;-74
2023/12/16 01:55:49;;;;;;;4.68;2.70;;;;;;;;;;4898267;29;20144;-73
2023/12/16 01:58:14;;;;;;;4.93;2.63;;;;;;;;;;4914008;29;20551;-73
2023/12/16 02:00:41;;;;;;;8.00;3.53;;;;;;;;;;4912865;29;20443;-75
2023/12/16 02:03:06;;;;;;;4.47;3.38;;;;;;;;;;4896189;29;20040;-77
2023/12/16 02:05:32;;;;;;;11.20;5.75;;;;;;;;;;4914105;29;20039;-73
2023/12/16 02:07:58;;;;;;;10.00;3.00;;;;;;;;;;4897392;29;20072;-73
2023/12/16 02:10:24;;;;;;;3.75;2.92;;;;;;;;;;4917428;29;20032;-75
2023/12/16 02:12:50;;;;;;;5.72;3.28;;;;;;;;;;4914041;29;20084;-74
2023/12/16 02:15:19;;;;;;;14.82;3.80;;;;;;;;;;4912636;29;20039;-73
2023/12/16 02:17:45;;;;;;;14.82;4.53;;;;;;;;;;4912450;29;20516;-73
2023/12/16 02:20:31;;;;;;;9.55;3.28;;;;;;;;;;4885986;29;20043;-74
2023/12/16 02:22:57;;;;;;;7.18;4.15;;;;;;;;;;4895285;29;20127;-74
2023/12/16 02:25:24;;;;;;;11.13;4.43;;;;;;;;;;4896963;29;20122;-73
2023/12/16 02:27:50;;;;;;;2.72;2.53;;;;;;;;;;4895058;29;20535;-72
2023/12/16 02:30:15;;;;;;;8.05;3.30;;;;;;;;;;4895161;29;20044;-73
2023/12/16 02:32:42;;;;;;;4.38;2.65;;;;;;;;;;4912417;29;20064;-72
2023/12/16 02:35:08;;;;;;;11.43;4.35;;;;;;;;;;4895719;29;20052;-74
2023/12/16 02:37:34;;;;;;;5.50;1.98;;;;;;;;;;4912938;29;20044;-73
2023/12/16 02:40:00;;;;;;;7.30;3.55;;;;;;;;;;4911964;29;20103;-75
2023/12/16 02:42:26;;;;;;;19.40;5.18;;;;;;;;;;4914424;29;20021;-75
2023/12/16 02:44:52;;;;;;;5.25;3.17;;;;;;;;;;4898445;29;20134;-74
2023/12/16 02:47:18;;;;;;;5.80;3.47;;;;;;;;;;4901022;29;20176;-75
2023/12/16 02:49:44;;;;;;;14.43;4.80;;;;;;;;;;4915957;29;20474;-74
2023/12/16 02:52:10;;;;;;;12.30;4.57;;;;;;;;;;4883772;29;20060;-74
2023/12/16 02:54:37;;;;;;;3.67;2.33;;;;;;;;;;4899296;29;20075;-73
2023/12/16 02:57:04;;;;;;;5.97;3.95;;;;;;;;;;4914585;29;20038;-74
2023/12/16 02:59:30;;;;;;;12.65;4.25;;;;;;;;;;4899654;29;20107;-74
2023/12/16 03:01:56;;;;;;;3.25;2.67;;;;;;;;;;4915570;29;20392;-72
2023/12/16 03:04:22;;;;;;;3.58;2.97;;;;;;;;;;4916520;29;20101;-74
2023/12/16 03:06:48;;;;;;;17.80;3.72;;;;;;;;;;4915398;29;20032;-74
2023/12/16 03:09:13;;;;;;;5.63;1.98;;;;;;;;;;4880135;29;20044;-74
2023/12/16 03:11:39;;;;;;;4.63;3.05;;;;;;;;;;4911375;29;20039;-74
2023/12/16 03:14:05;;;;;;;16.92;5.18;;;;;;;;;;4915561;29;20036;-75
2023/12/16 03:16:33;;;;;;;10.82;4.88;;;;;;;;;;4916131;29;20055;-74
2023/12/16 03:18:59;;;;;;;3.85;3.47;;;;;;;;;;4915711;29;20647;-73
2023/12/16 03:21:25;;;;;;;8.82;4.65;;;;;;;;;;4882363;29;20475;-73
2023/12/16 03:23:51;;;;;;;17.63;5.93;;;;;;;;;;4914890;29;20040;-75
2023/12/16 03:26:17;;;;;;;7.18;4.20;;;;;;;;;;4897612;29;20040;-73
2023/12/16 03:28:42;;;;;;;23.23;4.03;;;;;;;;;;4914713;29;20418;-73
2023/12/16 03:31:08;;;;;;;6.90;5.00;;;;;;;;;;4883847;29;20024;-74
2023/12/16 03:33:34;;;;;;;6.65;4.50;;;;;;;;;;4883105;29;20071;-74
2023/12/16 03:36:00;;;;;;;3.38;3.08;;;;;;;;;;4916120;29;20090;-74
2023/12/16 03:38:26;;;;;;;10.43;4.38;;;;;;;;;;4914531;29;20418;-75
2023/12/16 03:40:52;;;;;;;6.97;3.17;;;;;;;;;;4898542;29;20036;-74
2023/12/16 03:43:18;;;;;;;20.45;7.18;;;;;;;;;;4894739;29;20060;-73
2023/12/16 03:45:44;;;;;;;8.40;3.35;;;;;;;;;;4898229;29;20036;-73
2023/12/16 03:48:09;;;;;;;10.15;4.45;;;;;;;;;;4898522;29;20402;-74
2023/12/16 03:50:35;;;;;;;3.30;3.00;;;;;;;;;;4915451;29;20052;-73
2023/12/16 03:53:01;;;;;;;10.50;4.30;;;;;;;;;;4866187;29;20087;-74
2023/12/16 03:55:27;;;;;;;11.07;4.90;;;;;;;;;;4898370;29;20558;-75
2023/12/16 03:57:53;;;;;;;5.47;3.78;;;;;;;;;;4900282;29;20047;-74
2023/12/16 04:00:19;;;;;;;10.98;3.95;;;;;;;;;;4899571;29;20503;-74
2023/12/16 04:02:45;;;;;;;5.25;3.72;;;;;;;;;;4915140;29;20108;-75
2023/12/16 04:05:10;;;;;;;4.50;4.10;;;;;;;;;;4897510;29;20076;-73
2023/12/16 04:07:36;;;;;;;13.77;3.78;;;;;;;;;;4914516;29;20052;-73
2023/12/16 04:10:03;;;;;;;13.48;5.72;;;;;;;;;;4914858;29;20047;-75
2023/12/16 04:12:30;;;;;;;5.70;4.03;;;;;;;;;;4899407;29;20036;-75
2023/12/16 04:14:56;;;;;;;7.68;4.90;;;;;;;;;;4882787;29;20522;-74
2023/12/16 04:17:21;;;;;;;6.35;2.47;;;;;;;;;;4915254;29;20563;-76
2023/12/16 04:19:51;;;;;;;9.32;4.70;;;;;;;;;;4880796;29;20040;-73
2023/12/16 04:22:17;;;;;;;4.60;4.18;;;;;;;;;;4898332;29;20155;-75
2023/12/16 04:24:43;;;;;;;7.28;5.57;;;;;;;;;;4889589;29;20096;-73
2023/12/16 04:27:09;;;;;;;7.20;4.40;;;;;;;;;;4925199;29;20036;-75
2023/12/16 04:29:35;;;;;;;7.38;4.43;;;;;;;;;;4923986;29;20072;-74
2023/12/16 04:32:02;;;;;;;5.28;3.45;;;;;;;;;;4907542;29;20036;-74
2023/12/16 04:34:27;;;;;;;5.47;4.15;;;;;;;;;;4908224;29;20410;-75
2023/12/16 04:36:53;;;;;;;6.18;3.83;;;;;;;;;;4907974;29;20024;-73
2023/12/16 04:39:19;;;;;;;8.25;4.72;;;;;;;;;;4919454;29;20044;-73
2023/12/16 04:41:45;;;;;;;4.90;4.18;;;;;;;;;;4920002;29;20035;-73
2023/12/16 04:44:11;;;;;;;6.03;4.93;;;;;;;;;;4922859;29;20404;-75
2023/12/16 04:46:37;;;;;;;8.65;5.25;;;;;;;;;;4903915;29;20297;-73
2023/12/16 04:49:03;;;;;;;6.07;4.75;;;;;;;;;;4883265;29;20402;-74
2023/12/16 04:51:29;;;;;;;13.95;6.45;;;;;;;;;;4911049;29;20032;-74
2023/12/16 04:53:56;;;;;;;3.60;2.83;;;;;;;;;;4896130;29;20044;-74
2023/12/16 04:56:22;;;;;;;13.90;7.10;;;;;;;;;;4913750;29;20024;-74
2023/12/16 04:58:48;;;;;;;9.60;5.82;;;;;;;;;;4896090;29;20491;-74
2023/12/16 05:01:14;;;;;;;13.25;5.30;;;;;;;;;;4896767;29;20126;-74
2023/12/16 05:03:40;;;;;;;11.13;5.30;;;;;;;;;;4913407;29;20554;-73
2023/12/16 05:06:05;;;;;;;7.07;4.82;;;;;;;;;;4912838;29;20051;-73
2023/12/16 05:08:31;;;;;;;5.40;4.72;;;;;;;;;;4896783;29;20048;-74
2023/12/16 05:10:57;;;;;;;13.88;6.97;;;;;;;;;;4914226;29;20040;-75
2023/12/16 05:13:23;;;;;;;11.95;4.40;;;;;;;;;;4909459;29;20573;-74
2023/12/16 05:15:51;;;;;;;5.40;4.63;;;;;;;;;;4912837;29;20044;-74
2023/12/16 05:18:17;;;;;;;17.73;6.43;;;;;;;;;;4895785;29;20169;-75
2023/12/16 05:20:43;;;;;;;7.50;5.43;;;;;;;;;;4912700;29;20036;-74
2023/12/16 05:23:09;;;;;;;7.97;5.32;;;;;;;;;;4912316;29;20518;-76
2023/12/16 05:25:35;;;;;;;8.48;5.22;;;;;;;;;;4897369;29;20522;-74
2023/12/16 05:28:01;;;;;;;11.38;5.15;;;;;;;;;;4913101;29;20036;-75
2023/12/16 05:30:27;;;;;;;14.00;5.28;;;;;;;;;;4879198;29;20048;-75
2023/12/16 05:32:53;;;;;;;9.00;5.90;;;;;;;;;;4912733;29;20042;-74
2023/12/16 05:35:19;;;;;;;5.03;4.63;;;;;;;;;;4893877;29;20522;-73
2023/12/16 05:37:45;;;;;;;13.18;6.60;;;;;;;;;;4910109;29;20095;-74
2023/12/16 05:40:11;;;;;;;6.88;5.20;;;;;;;;;;4911184;29;20039;-75
2023/12/16 05:42:38;;;;;;;15.05;6.20;;;;;;;;;;4912719;29;20460;-77
2023/12/16 05:45:04;;;;;;;8.68;4.68;;;;;;;;;;4905035;29;20040;-75
2023/12/16 05:47:31;;;;;;;5.93;5.00;;;;;;;;;;4912912;29;20040;-75
2023/12/16 05:49:57;;;;;;;6.85;4.82;;;;;;;;;;4888197;29;20426;-73
2023/12/16 05:52:22;;;;;;;5.57;5.07;;;;;;;;;;4911061;29;20066;-74
2023/12/16 05:54:48;;;;;;;9.55;6.15;;;;;;;;;;4911372;29;20577;-74
2023/12/16 05:57:14;;;;;;;11.10;5.47;;;;;;;;;;4908020;29;20534;-74
2023/12/16 05:59:40;;;;;;;7.90;4.95;;;;;;;;;;4905688;29;20044;-74
2023/12/16 06:02:05;;;;;;;6.40;4.95;;;;;;;;;;4876747;29;20467;-74
2023/12/16 06:04:31;;;;;;;8.05;5.10;;;;;;;;;;4910467;29;20123;-75
2023/12/16 06:06:57;;;;;;;8.88;5.85;;;;;;;;;;4895782;29;20095;-73
2023/12/16 06:09:23;;;;;;;31.05;6.47;;;;;;;;;;4894321;29;20087;-75
2023/12/16 06:11:49;;;;;;;5.90;5.07;;;;;;;;;;4913571;29;20064;-75
2023/12/16 06:14:14;;;;;;;17.58;8.43;;;;;;;;;;4909610;29;20598;-76
2023/12/16 06:16:40;;;;;;;16.00;7.72;;;;;;;;;;4913272;29;20099;-74
2023/12/16 06:19:06;;;;;;;10.85;4.47;;;;;;;;;;4876347;29;20127;-75
2023/12/16 06:21:32;;;;;;;13.75;6.88;;;;;;;;;;4897431;29;20551;-74
2023/12/16 06:23:58;;;;;;;21.88;5.90;;;;;;;;;;4912203;29;20041;-74
2023/12/16 06:26:24;;;;;;;19.00;7.30;;;;;;;;;;4900712;29;20064;-75
2023/12/16 06:28:51;;;;;;;14.45;7.10;;;;;;;;;;4914619;29;20131;-75
2023/12/16 06:31:17;;;;;;;12.65;6.93;;;;;;;;;;4909160;29;20044;-75
2023/12/16 06:33:42;;;;;;;4.10;3.63;;;;;;;;;;4911592;29;20091;-74
2023/12/16 06:36:08;;;;;;;4.00;3.72;;;;;;;;;;4915544;29;20459;-75
2023/12/16 06:38:34;;;;;;;21.50;8.32;;;;;;;;;;4896182;29;20044;-75
2023/12/16 06:41:00;;;;;;;11.88;6.32;;;;;;;;;;4914755;29;20035;-76
2023/12/16 06:43:26;;;;;;;17.45;7.47;;;;;;;;;;4911340;29;20131;-74
2023/12/16 06:45:53;;;;;;;13.32;5.80;;;;;;;;;;4910426;29;20122;-73
2023/12/16 06:48:22;;;;;;;6.70;5.03;;;;;;;;;;4897572;29;20072;-74
2023/12/16 06:50:50;;;;;;;9.25;6.57;;;;;;;;;;4913590;29;20056;-73
2023/12/16 06:53:16;;;;;;;8.43;5.45;;;;;;;;;;4915680;29;20123;-73
2023/12/16 06:55:43;;;;;;;10.27;5.78;;;;;;;;;;4896871;29;20039;-74
2023/12/16 06:58:09;;;;;;;16.55;6.75;;;;;;;;;;4914835;29;20115;-74
2023/12/16 07:00:35;;;;;;;12.75;5.43;;;;;;;;;;4914342;29;20125;-74
2023/12/16 07:03:01;;;;;;;11.18;7.40;;;;;;;;;;4912856;29;20716;-74
2023/12/16 07:05:33;;;;;;;8.27;6.18;;;;;;;;;;4918220;29;20062;-74
2023/12/16 07:08:00;;;;;;;9.82;5.97;;;;;;;;;;4916212;29;20173;-75
2023/12/16 07:10:26;;;;;;;11.80;7.63;;;;;;;;;;4913671;29;20040;-74
2023/12/16 07:12:52;;;;;;;16.15;6.78;;;;;;;;;;4897432;29;20031;-73
2023/12/16 07:15:18;;;;;;;12.10;6.03;;;;;;;;;;4883545;29;20043;-73
2023/12/16 07:17:44;;;;;;;8.73;5.85;;;;;;;;;;4897868;29;20456;-73
2023/12/16 07:20:10;;;;;;;9.10;6.57;;;;;;;;;;4915880;29;20147;-73
2023/12/16 07:22:36;;;;;;;9.80;6.40;;;;;;;;;;4914445;29;20039;-73
2023/12/16 07:25:02;;;;;;;6.28;5.00;;;;;;;;;;4914732;29;20609;-74
2023/12/16 07:27:32;;;;;;;10.32;6.32;;;;;;;;;;4882274;29;20412;-73
2023/12/16 07:29:58;;;;;;;6.35;5.47;;;;;;;;;;4883191;29;20052;-75
2023/12/16 07:32:24;;;;;;;14.85;6.68;;;;;;;;;;4915936;29;20024;-74
2023/12/16 07:34:50;;;;;;;4.13;3.78;;;;;;;;;;4913275;29;20050;-74
2023/12/16 07:37:16;;;;;;;8.90;5.55;;;;;;;;;;4914275;29;20039;-74
2023/12/16 07:39:42;;;;;;;11.25;5.95;;;;;;;;;;4910808;29;20503;-73
2023/12/16 07:42:08;;;;;;;10.40;6.68;;;;;;;;;;4897678;29;20052;-74
2023/12/16 07:44:34;;;;;;;19.00;6.70;;;;;;;;;;4915798;29;20095;-74
2023/12/16 07:47:00;;;;;;;7.18;6.07;;;;;;;;;;4914032;29;20048;-73
2023/12/16 07:49:26;;;;;;;15.75;8.05;;;;;;;;;;4913656;29;20047;-75
2023/12/16 07:51:52;;;;;;;14.75;7.15;;;;;;;;;;4893836;29;20059;-75
2023/12/16 07:54:18;;;;;;;6.50;5.28;;;;;;;;;;4914498;29;20036;-73
2023/12/16 07:56:44;;;;;;;8.73;5.28;;;;;;;;;;4914871;29;20043;-73
2023/12/16 07:59:10;;;;;;;7.22;5.30;;;;;;;;;;4896615;29;20036;-74
2023/12/16 08:01:35;;;;;;;12.68;7.20;;;;;;;;;;4898205;29;20048;-74
2023/12/16 08:04:01;;;;;;;11.68;6.47;;;;;;;;;;4895258;29;20040;-74
2023/12/16 08:06:27;;;;;;;8.30;7.45;;;;;;;;;;4913896;29;20024;-74
2023/12/16 08:08:53;;;;;;;14.77;8.93;;;;;;;;;;4914205;29;20107;-73
2023/12/16 08:11:19;;;;;;;19.23;8.52;;;;;;;;;;4914118;29;20118;-75
2023/12/16 08:13:44;;;;;;;13.25;6.00;;;;;;;;;;4893378;29;20044;-75
2023/12/16 08:16:11;;;;;;;8.02;3.63;;;;;;;;;;4915732;29;20063;-74
2023/12/16 08:18:37;;;;;;;12.48;7.72;;;;;;;;;;4919286;29;20115;-74
2023/12/16 08:21:03;;;;;;;7.28;5.68;;;;;;;;;;4914284;29;20463;-74
2023/12/16 08:23:29;;;;;;;7.88;6.55;;;;;;;;;;4896530;29;20051;-75
2023/12/16 08:25:55;;;;;;;9.45;6.35;;;;;;;;;;4875638;29;20040;-76
2023/12/16 08:28:20;;;;;;;15.10;7.88;;;;;;;;;;4913400;29;20123;-74
2023/12/16 08:30:49;;;;;;;14.20;7.55;;;;;;;;;;4911625;29;20056;-75
2023/12/16 08:33:15;;;;;;;4.82;4.22;;;;;;;;;;4914201;29;20118;-74
2023/12/16 08:35:42;;;;;;;6.88;5.57;;;;;;;;;;4906310;29;20132;-74
2023/12/16 08:38:08;;;;;;;11.90;7.72;;;;;;;;;;4897701;29;20028;-75
2023/12/16 08:40:33;;;;;;;9.43;5.45;;;;;;;;;;4883840;29;20038;-75
2023/12/16 08:42:59;;;;;;;5.32;4.75;;;;;;;;;;4895885;29;20040;-77
2023/12/16 08:45:25;;;;;;;13.60;7.07;;;;;;;;;;4896313;29;20088;-77
2023/12/16 08:47:51;;;;;;;18.23;7.70;;;;;;;;;;4863739;29;20067;-77
2023/12/16 08:50:16;;;;;;;10.25;5.65;;;;;;;;;;4896521;29;20096;-74
2023/12/16 08:52:42;;;;;;;5.55;5.00;;;;;;;;;;4914069;29;20044;-74
2023/12/16 08:55:08;;;;;;;6.70;4.63;;;;;;;;;;4914461;29;20038;-73
2023/12/16 08:57:34;;;;;;;11.98;6.53;;;;;;;;;;4897644;29;20096;-75
2023/12/16 09:00:00;;;;;;;7.63;5.55;;;;;;;;;;4895208;29;20040;-75
2023/12/16 09:02:25;;;;;;;7.63;6.43;;;;;;;;;;4906432;29;20040;-75
2023/12/16 09:04:51;;;;;;;6.03;5.40;;;;;;;;;;4894109;29;20036;-75
2023/12/16 09:07:17;;;;;;;10.02;7.07;;;;;;;;;;4914497;29;20451;-76
2023/12/16 09:09:44;;;;;;;9.90;6.45;;;;;;;;;;4898446;29;20059;-77
2023/12/16 09:12:13;;;;;;;4.07;3.78;;;;;;;;;;4916320;29;20047;-76
2023/12/16 09:14:39;;;;;;;5.53;5.03;;;;;;;;;;4895149;29;20032;-77
2023/12/16 09:17:06;;;;;;;12.50;6.53;;;;;;;;;;4880675;29;20570;-75
2023/12/16 09:19:32;;;;;;;12.75;6.40;;;;;;;;;;4903446;29;20516;-75
2023/12/16 09:21:57;;;;;;;8.13;6.00;;;;;;;;;;4898032;29;20136;-75
2023/12/16 09:24:23;;;;;;;4.03;3.72;;;;;;;;;;4914056;29;20044;-75
2023/12/16 09:26:49;;;;;;;10.60;3.47;;;;;;;;;;4894789;29;20036;-76
2023/12/16 09:29:15;;;;;;;11.18;6.35;;;;;;;;;;4896409;29;20452;-75
2023/12/16 09:31:42;;;;;;;4.80;4.40;;;;;;;;;;4895033;29;20412;-76
2023/12/16 09:34:07;;;;;;;6.20;5.60;;;;;;;;;;4878465;29;20039;-75
2023/12/16 09:36:33;;;;;;;4.95;4.55;;;;;;;;;;4895645;29;20041;-75
2023/12/16 09:38:59;;;;;;;4.13;3.83;;;;;;;;;;4889955;29;20637;-77
2023/12/16 09:41:26;;;;;;;4.35;3.95;;;;;;;;;;4908007;29;20069;-74
2023/12/16 09:43:52;;;;;;;4.53;4.15;;;;;;;;;;4912485;29;20387;-79
2023/12/16 09:46:19;;;;;;;6.95;6.20;;;;;;;;;;4899489;29;20036;-76
2023/12/16 09:48:45;;;;;;;4.93;4.35;;;;;;;;;;4895392;29;20051;-75
2023/12/16 09:51:10;;;;;;;9.43;5.70;;;;;;;;;;4885086;29;20422;-75
2023/12/16 09:53:36;;;;;;;7.30;4.18;;;;;;;;;;4901174;29;20103;-75
2023/12/16 09:56:02;;;;;;;10.27;6.85;;;;;;;;;;4918144;29;20443;-75
2023/12/16 09:58:29;;;;;;;4.78;4.38;;;;;;;;;;4918010;29;20047;-73
2023/12/16 10:00:55;;;;;;;11.60;7.50;;;;;;;;;;4900679;29;20040;-75
2023/12/16 10:03:21;;;;;;;8.10;5.70;;;;;;;;;;4917785;29;20099;-75
2023/12/16 10:05:47;;;;;;;12.43;6.03;;;;;;;;;;4917465;29;20041;-74
2023/12/16 10:08:13;;;;;;;3.95;3.55;;;;;;;;;;4885291;29;20550;-75
2023/12/16 10:10:38;;;;;;;8.38;6.70;;;;;;;;;;4885045;29;20229;-74
2023/12/16 10:13:04;;;;;;;5.22;4.47;;;;;;;;;;4915825;29;20040;-75
2023/12/16 10:15:31;;;;;;;5.25;4.82;;;;;;;;;;4889879;29;20541;-75
2023/12/16 10:17:58;;;;;;;8.80;6.03;;;;;;;;;;4968669;23;20326;-75
2023/12/16 10:20:25;;;;;;;5.88;5.32;;;;;;;;;;4949698;29;20045;-74
2023/12/16 10:22:53;;;;;;;8.32;5.72;;;;;;;;;;4946291;29;20453;-75
2023/12/16 10:25:19;;;;;;;2.63;2.45;;;;;;;;;;4848948;29;20039;-74
2023/12/16 10:27:46;;;;;;;7.30;5.07;;;;;;;;;;4946125;29;20041;-74
2023/12/16 10:30:12;;;;;;;4.18;3.78;;;;;;;;;;4905427;29;20048;-73
2023/12/16 10:32:39;;;;;;;2.90;2.70;;;;;;;;;;4927840;29;20037;-75
2023/12/16 10:35:05;;;;;;;5.28;4.88;;;;;;;;;;4930859;29;20031;-75
2023/12/16 10:37:32;;;;;;;6.40;5.72;;;;;;;;;;4942935;29;20083;-75
2023/12/16 10:39:58;;;;;;;5.45;4.30;;;;;;;;;;4926604;29;20074;-74
2023/12/16 10:42:28;;;;;;;5.00;4.50;;;;;;;;;;4909726;23;20063;-81
2023/12/16 10:44:55;;;;;;;6.82;5.82;;;;;;;;;;4893174;29;20048;-80
2023/12/16 10:47:21;;;;;;;9.20;6.25;;;;;;;;;;4888725;29;20056;-78
2023/12/16 10:49:52;;;;;;;7.95;5.95;;;;;;;;;;4886964;29;20071;-78
2023/12/16 10:52:53;;;;;;;5.72;3.42;;;;;;;;;;4913255;29;20035;-78
2023/12/16 10:55:40;;;;;;;5.65;4.95;;;;;;;;;;4892488;29;20063;-80
2023/12/16 10:58:31;;;;;;;4.50;4.10;;;;;;;;;;4880928;29;20043;-79
2023/12/16 11:01:18;;;;;;;3.70;3.40;;;;;;;;;;4866501;29;20044;-78
2023/12/16 11:03:58;;;;;;;5.55;3.83;;;;;;;;;;4865106;29;20044;-78
2023/12/16 11:06:29;;;;;;;4.47;4.07;;;;;;;;;;4867599;29;20075;-79
2023/12/16 11:08:55;;;;;;;5.72;5.22;;;;;;;;;;4863948;29;20525;-77
2023/12/16 11:11:21;;;;;;;3.22;3.03;;;;;;;;;;4857282;29;20036;-77
2023/12/16 11:13:50;;;;;;;4.90;4.47;;;;;;;;;;4898516;29;20123;-79
2023/12/16 11:16:17;;;;;;;4.88;4.45;;;;;;;;;;4884199;29;20040;-79
2023/12/16 11:18:44;;;;;;;3.70;3.40;;;;;;;;;;4881676;29;20048;-77
2023/12/16 11:21:13;;;;;;;5.53;4.25;;;;;;;;;;4912037;29;20039;-77
2023/12/16 11:23:45;;;;;;;6.43;5.38;;;;;;;;;;4913954;29;20573;-77
2023/12/16 11:26:11;;;;;;;4.25;3.95;;;;;;;;;;4896706;29;20096;-77
2023/12/16 11:28:40;;;;;;;2.85;2.65;;;;;;;;;;4891112;29;20043;-76
2023/12/16 11:31:07;;;;;;;5.15;4.57;;;;;;;;;;4865650;29;20119;-75
2023/12/16 11:33:43;;;;;;;5.22;4.57;;;;;;;;;;4864979;29;20040;-76
2023/12/16 11:36:10;;;;;;;4.45;3.83;;;;;;;;;;4881009;29;20140;-77
2023/12/16 11:39:00;;;;;;;7.13;3.10;;;;;;;;;;4876358;29;20039;-78
2023/12/16 11:41:36;;;;;;;5.60;5.07;;;;;;;;;;4866466;29;20053;-78
2023/12/16 11:44:02;;;;;;;4.88;4.47;;;;;;;;;;4892148;29;20157;-78
2023/12/16 11:46:46;;;;;;;3.65;3.42;;;;;;;;;;4863917;29;20048;-76
2023/12/16 11:49:16;;;;;;;6.85;5.03;;;;;;;;;;4885361;29;20087;-78
2023/12/16 11:51:42;;;;;;;6.72;5.57;;;;;;;;;;4866711;29;20053;-77
2023/12/16 11:54:09;;;;;;;5.05;4.57;;;;;;;;;;4900306;29;20048;-79
2023/12/16 11:56:35;;;;;;;5.82;5.22;;;;;;;;;;4896803;29;20032;-80
2023/12/16 11:59:05;;;;;;;4.85;4.50;;;;;;;;;;4838986;29;20041;-78
2023/12/16 12:01:36;;;;;;;4.88;4.50;;;;;;;;;;4848982;29;20060;-80
2023/12/16 12:04:02;;;;;;;4.70;4.30;;;;;;;;;;4843424;29;20036;-76
2023/12/16 12:06:28;;;;;;;5.15;4.65;;;;;;;;;;4842498;29;20040;-78
2023/12/16 12:08:55;;;;;;;7.03;5.30;;;;;;;;;;4848903;29;20048;-80
2023/12/16 12:11:22;;;;;;;5.53;5.10;;;;;;;;;;4848462;29;20124;-77
2023/12/16 12:13:50;;;;;;;5.75;5.20;;;;;;;;;;4875386;29;20638;-78
2023/12/16 12:16:16;;;;;;;5.03;4.63;;;;;;;;;;4893509;29;20610;-77
2023/12/16 12:18:42;;;;;;;4.65;4.03;;;;;;;;;;4895674;29;20040;-78
2023/12/16 12:21:08;;;;;;;6.57;4.95;;;;;;;;;;4895815;29;20507;-77
2023/12/16 12:23:36;;;;;;;6.53;4.38;;;;;;;;;;4876275;29;20040;-78
2023/12/16 12:26:02;;;;;;;4.22;3.92;;;;;;;;;;4896460;29;20032;-80
2023/12/16 12:28:28;;;;;;;4.35;4.05;;;;;;;;;;4876316;29;20040;-79
2023/12/16 12:31:06;;;;;;;6.57;4.68;;;;;;;;;;4880760;29;20036;-82
2023/12/16 12:33:32;;;;;;;5.13;4.72;;;;;;;;;;4879405;29;20040;-81
2023/12/16 12:35:58;;;;;;;7.53;4.97;;;;;;;;;;4881766;29;20037;-78
2023/12/16 12:38:25;;;;;;;4.18;3.88;;;;;;;;;;4882758;29;20036;-80
2023/12/16 12:40:57;;;;;;;4.18;3.88;;;;;;;;;;4902236;29;20048;-80
2023/12/16 12:43:27;;;;;;;4.85;3.95;;;;;;;;;;4858140;29;20036;-81
2023/12/16 12:45:59;;;;;;;3.70;3.40;;;;;;;;;;4848308;29;20017;-81
2023/12/16 12:48:25;;;;;;;4.75;4.35;;;;;;;;;;4878908;29;20045;-81
2023/12/16 12:51:01;;;;;;;6.90;5.22;;;;;;;;;;4859798;29;20483;-81
2023/12/16 12:53:28;;;;;;;3.72;3.53;;;;;;;;;;4857586;29;20450;-82
2023/12/16 12:55:54;;;;;;;5.10;4.68;;;;;;;;;;4857926;29;20036;-80
2023/12/16 12:58:22;;;;;;;5.22;4.70;;;;;;;;;;4855667;29;20048;-80
2023/12/16 13:00:52;;;;;;;5.57;4.65;;;;;;;;;;4851630;29;20036;-79
2023/12/16 13:03:20;;;;;;;6.05;4.50;;;;;;;;;;4849923;29;20040;-79
2023/12/16 13:05:47;;;;;;;4.35;4.05;;;;;;;;;;4848155;29;20040;-79
2023/12/16 13:08:16;;;;;;;4.05;3.75;;;;;;;;;;4848176;29;20044;-78
2023/12/16 13:10:46;;;;;;;3.47;3.13;;;;;;;;;;4862964;29;20041;-79
2023/12/16 13:13:12;;;;;;;4.78;4.28;;;;;;;;;;4864881;29;20036;-78
2023/12/16 13:15:38;;;;;;;3.95;3.75;;;;;;;;;;4835768;29;20597;-77
2023/12/16 13:18:04;;;;;;;5.70;5.20;;;;;;;;;;4882763;29;20036;-79
2023/12/16 13:20:35;;;;;;;5.88;5.28;;;;;;;;;;4865810;29;20511;-78
2023/12/16 13:23:02;;;;;;;3.88;3.58;;;;;;;;;;4882100;29;20040;-79
2023/12/16 13:25:27;;;;;;;4.72;4.32;;;;;;;;;;4898104;29;20032;-79
2023/12/16 13:27:53;;;;;;;4.18;3.80;;;;;;;;;;4878271;29;20063;-78
2023/12/16 13:30:19;;;;;;;2.83;2.67;;;;;;;;;;4879693;29;20048;-79
2023/12/16 13:32:45;;;;;;;2.72;2.53;;;;;;;;;;4878312;29;20032;-79
2023/12/16 13:35:11;;;;;;;4.40;3.95;;;;;;;;;;4896165;29;20571;-78
2023/12/16 13:37:38;;;;;;;3.17;2.97;;;;;;;;;;4894627;29;20483;-81
2023/12/16 13:40:07;;;;;;;5.18;4.78;;;;;;;;;;4852165;29;20036;-79
2023/12/16 13:42:35;;;;;;;;;;;;;;;;;;4885898;29;20173;-81
2023/12/16 13:45:04;;;;;;;2.85;2.67;;;;;;;;;;4855202;29;19915;-78
2023/12/16 13:47:31;;;;;;;4.45;4.03;;;;;;;;;;4862574;29;20112;-79
2023/12/16 13:49:57;;;;;;;4.47;4.18;;;;;;;;;;4877731;29;20063;-80
2023/12/16 13:52:23;;;;;;;3.08;2.78;;;;;;;;;;4853259;29;20028;-80
2023/12/16 13:54:50;;;;;;;2.85;2.65;;;;;;;;;;4870453;29;20521;-80
2023/12/16 13:57:19;;;;;;;2.95;2.75;;;;;;;;;;4865149;29;20037;-77
2023/12/16 13:59:57;;;;;;;2.67;2.55;;;;;;;;;;4859874;29;20040;-79
2023/12/16 14:02:31;;;;;;;2.15;2.05;;;;;;;;;;4880586;29;20032;-81
2023/12/16 14:04:59;;;;;;;4.50;4.10;;;;;;;;;;4857541;29;20072;-80
2023/12/16 14:07:25;;;;;;;5.00;3.38;;;;;;;;;;4848947;29;20060;-79
2023/12/16 14:09:51;;;;;;;3.30;3.10;;;;;;;;;;4854103;29;20414;-78
2023/12/16 14:12:17;;;;;;;6.93;4.55;;;;;;;;;;4864006;29;20456;-79
2023/12/16 14:14:43;;;;;;;4.10;3.83;;;;;;;;;;4842962;29;20087;-77
2023/12/16 14:17:13;;;;;;;3.65;3.35;;;;;;;;;;4862107;29;20061;-76
2023/12/16 14:19:50;;;;;;;3.72;3.47;;;;;;;;;;4861709;29;20074;-80
2023/12/16 14:22:16;;;;;;;3.75;3.45;;;;;;;;;;4862110;29;20068;-80
2023/12/16 14:24:42;;;;;;;4.82;4.43;;;;;;;;;;4831826;29;20064;-78
2023/12/16 14:27:08;;;;;;;4.65;4.25;;;;;;;;;;4847752;29;20075;-79
2023/12/16 14:29:34;;;;;;;7.03;4.00;;;;;;;;;;4862716;29;20520;-80
2023/12/16 14:32:28;;;;;;;4.18;3.88;;;;;;;;;;4868175;29;20081;-79
2023/12/16 14:34:54;;;;;;;1.92;1.83;;;;;;;;;;4877552;29;20033;-79
2023/12/16 14:37:20;;;;;;;2.92;2.70;;;;;;;;;;4833314;29;20029;-77
2023/12/16 14:39:47;;;;;;;6.18;4.72;;;;;;;;;;4850460;29;20071;-79